25II weather

Gm Heliport
Aboite, Indiana, United States

Public forecast

Using degrees Fahrenheit for public forecast. Weather courtesy of forecast.io.

Closest aviation weather report (METAR) to Gm Heliport

Closest report is Fort Wayne International Airport, 4.4 nm (8.2 km) E. Retrieved 2019/10/19 07:54 UTC (48 minutes ago):

KFWA 190754Z 05003KT 10SM CLR 03/01 A2998 RMK AO2 SLP154 T00280006

Closest aviation forecast (TAF) to Gm Heliport

Closest forecast is Fort Wayne International Airport, 4.4 nm (8.2 km) E. Retrieved 2019/10/19 06:27 UTC (2 hours ago):

TAF KFWA 190525Z 1906/2006 VRB03KT P6SM FEW250 FM191400 15008KT P6SM SCT250